Time;durP1;ratioP1;P1;durP2;ratioP2;P2;SDS_P1;SDS_P2;PMS_P1;PMS_P2;Temp;Humidity;BMP_temperature;BMP_pressure;BME280_temperature;BME280_humidity;BME280_pressure;Samples;Min_cycle;Max_cycle;Signal;HPM_P1;HPM_P2
2023/08/29 00:02:23;;;;;;;8.80;6.63;;;15.40;99.90;;;;;;6103153;23;20219;-70
2023/08/29 00:04:48;;;;;;;6.83;5.90;;;15.30;99.90;;;;;;6102868;23;20133;-70
2023/08/29 00:07:14;;;;;;;7.50;6.80;;;15.30;99.90;;;;;;6102693;23;20582;-70
2023/08/29 00:09:40;;;;;;;7.30;6.60;;;15.20;99.90;;;;;;6102267;23;20177;-70
2023/08/29 00:12:05;;;;;;;7.67;6.80;;;15.20;99.90;;;;;;6101750;23;20144;-71
2023/08/29 00:14:31;;;;;;;11.90;7.70;;;15.10;99.90;;;;;;6101984;23;20140;-70
2023/08/29 00:16:57;;;;;;;7.57;6.60;;;15.10;99.90;;;;;;6101696;23;20569;-70
2023/08/29 00:19:22;;;;;;;7.93;7.13;;;15.00;99.90;;;;;;6102482;23;20141;-71
2023/08/29 00:21:48;;;;;;;7.00;6.30;;;15.00;99.90;;;;;;6101152;23;20188;-71
2023/08/29 00:24:14;;;;;;;6.93;5.70;;;14.90;99.90;;;;;;6101534;23;20140;-69
2023/08/29 00:26:41;;;;;;;6.37;5.40;;;14.80;99.90;;;;;;6101223;23;20426;-70
2023/08/29 00:29:06;;;;;;;5.47;4.97;;;14.80;99.90;;;;;;6100078;23;20180;-70
2023/08/29 00:31:32;;;;;;;6.20;5.60;;;14.70;99.90;;;;;;6075318;23;20431;-71
2023/08/29 00:33:58;;;;;;;8.33;7.50;;;14.70;99.90;;;;;;6105598;23;20184;-70
2023/08/29 00:36:24;;;;;;;8.10;7.30;;;14.60;99.90;;;;;;6076213;23;20384;-70
2023/08/29 00:38:50;;;;;;;10.03;7.30;;;14.60;99.90;;;;;;6101092;23;20164;-70
2023/08/29 00:41:15;;;;;;;7.63;6.70;;;14.60;99.90;;;;;;6101372;23;20210;-69
2023/08/29 00:43:41;;;;;;;6.23;5.57;;;14.60;99.90;;;;;;6101677;23;20427;-69
2023/08/29 00:46:06;;;;;;;7.00;6.27;;;14.60;99.90;;;;;;6075886;23;20223;-69
2023/08/29 00:48:32;;;;;;;5.43;4.93;;;14.70;99.90;;;;;;6075597;23;20462;-70
2023/08/29 00:50:58;;;;;;;6.80;6.17;;;14.70;99.90;;;;;;6101443;23;20861;-69
2023/08/29 00:53:25;;;;;;;8.17;7.23;;;14.70;99.90;;;;;;6075010;23;20372;-69
2023/08/29 00:55:51;;;;;;;9.20;8.30;;;14.70;99.90;;;;;;6076106;23;20706;-69
2023/08/29 00:58:18;;;;;;;8.10;7.30;;;14.80;99.90;;;;;;6101041;23;20385;-70
2023/08/29 01:00:45;;;;;;;7.13;6.50;;;14.80;99.90;;;;;;6101062;23;20441;-69
2023/08/29 01:03:11;;;;;;;7.00;6.30;;;14.80;99.90;;;;;;6101099;23;20363;-70
2023/08/29 01:05:37;;;;;;;8.80;7.90;;;14.80;99.90;;;;;;6101600;23;20646;-69
2023/08/29 01:08:05;;;;;;;8.60;7.80;;;14.80;99.90;;;;;;6076111;23;20853;-70
2023/08/29 01:10:48;;;;;;;10.50;9.00;;;14.80;99.90;;;;;;6100685;23;20404;-70
2023/08/29 01:13:29;;;;;;;9.20;7.73;;;14.80;99.90;;;;;;6101194;23;20747;-70
2023/08/29 01:15:58;;;;;;;10.40;9.30;;;14.80;99.90;;;;;;6103031;23;20384;-70
2023/08/29 01:18:26;;;;;;;11.80;10.60;;;14.80;99.90;;;;;;6076546;23;20369;-69
2023/08/29 01:21:02;;;;;;;11.90;8.83;;;14.80;99.90;;;;;;6100813;23;20856;-71
2023/08/29 01:23:42;;;;;;;10.70;9.60;;;14.80;99.90;;;;;;6102168;23;20360;-71
2023/08/29 01:26:12;;;;;;;10.97;9.83;;;14.80;99.90;;;;;;6101222;23;20372;-69
2023/08/29 01:28:39;;;;;;;10.23;9.23;;;14.80;99.90;;;;;;6100752;23;20416;-69
2023/08/29 01:31:06;;;;;;;10.63;9.47;;;14.80;99.90;;;;;;6101374;23;20401;-69
2023/08/29 01:33:33;;;;;;;11.43;10.23;;;14.80;99.90;;;;;;6101052;23;20365;-69
2023/08/29 01:35:59;;;;;;;9.53;8.60;;;14.80;99.90;;;;;;6101158;23;20789;-71
2023/08/29 01:38:25;;;;;;;10.00;9.03;;;14.90;99.90;;;;;;6075407;23;20408;-71
2023/08/29 01:40:50;;;;;;;8.33;7.57;;;14.80;99.90;;;;;;6074967;23;20231;-71
2023/08/29 01:43:16;;;;;;;8.90;8.00;;;14.90;99.90;;;;;;6100766;23;20140;-70
2023/08/29 01:45:41;;;;;;;10.40;8.10;;;14.90;99.90;;;;;;6100930;23;20217;-70
2023/08/29 01:48:07;;;;;;;10.50;9.50;;;14.90;99.90;;;;;;6100819;23;20140;-70
2023/08/29 01:50:34;;;;;;;11.40;10.30;;;14.90;99.90;;;;;;6100641;23;20192;-70
2023/08/29 01:53:00;;;;;;;10.57;9.47;;;14.90;99.90;;;;;;6100394;23;20782;-70
2023/08/29 01:55:27;;;;;;;8.03;7.23;;;14.90;99.90;;;;;;6100607;23;20368;-70
2023/08/29 01:57:54;;;;;;;10.43;9.33;;;14.90;99.90;;;;;;6075411;23;20392;-70
2023/08/29 02:00:21;;;;;;;8.80;8.00;;;14.90;99.90;;;;;;6075472;23;20460;-70
2023/08/29 02:02:48;;;;;;;9.63;8.73;;;14.90;99.90;;;;;;6075452;23;20423;-70
2023/08/29 02:05:14;;;;;;;14.47;10.53;;;14.90;99.90;;;;;;6101844;23;20353;-70
2023/08/29 02:07:39;;;;;;;11.30;10.20;;;15.00;99.90;;;;;;6075119;23;20383;-70
2023/08/29 02:10:06;;;;;;;11.10;9.67;;;15.00;99.90;;;;;;6075090;23;20255;-70
2023/08/29 02:12:31;;;;;;;11.87;10.77;;;15.00;99.90;;;;;;6100968;23;20538;-70
2023/08/29 02:14:57;;;;;;;11.37;10.30;;;15.00;99.90;;;;;;6074556;23;20373;-71
2023/08/29 02:17:23;;;;;;;12.60;11.30;;;15.00;99.90;;;;;;6075513;23;20148;-71
2023/08/29 02:19:48;;;;;;;12.50;11.23;;;15.00;99.90;;;;;;6074959;23;20396;-70
2023/08/29 02:22:14;;;;;;;11.00;9.70;;;15.00;99.90;;;;;;6100036;23;20562;-70
2023/08/29 02:24:40;;;;;;;12.43;11.20;;;15.00;99.90;;;;;;6100004;23;20136;-70
2023/08/29 02:27:05;;;;;;;11.53;10.33;;;15.00;99.90;;;;;;6100056;23;20133;-70
2023/08/29 02:29:31;;;;;;;12.03;10.93;;;15.00;99.90;;;;;;6099774;23;20192;-70
2023/08/29 02:31:57;;;;;;;11.40;10.20;;;15.00;99.90;;;;;;6074858;23;20180;-70
2023/08/29 02:34:24;;;;;;;10.40;9.40;;;15.00;99.90;;;;;;6075153;23;20377;-70
2023/08/29 02:36:50;;;;;;;11.37;10.17;;;15.00;99.90;;;;;;6100688;23;20451;-70
2023/08/29 02:39:16;;;;;;;11.20;10.10;;;15.00;99.90;;;;;;6099561;23;20371;-70
2023/08/29 02:41:42;;;;;;;12.70;11.60;;;15.00;99.90;;;;;;6099747;23;20663;-71
2023/08/29 02:44:07;;;;;;;10.43;9.30;;;14.90;99.90;;;;;;6101115;23;20392;-71
2023/08/29 02:46:33;;;;;;;8.37;7.67;;;14.90;99.90;;;;;;6101766;23;20156;-69
2023/08/29 02:48:58;;;;;;;11.40;10.30;;;14.90;99.90;;;;;;6100987;23;20137;-70
2023/08/29 02:51:24;;;;;;;10.70;9.70;;;14.90;99.90;;;;;;6101671;23;20224;-70
2023/08/29 02:53:49;;;;;;;11.33;10.17;;;14.90;99.90;;;;;;6076492;23;20213;-70
2023/08/29 02:56:15;;;;;;;10.33;9.30;;;14.80;99.90;;;;;;6076098;23;20557;-70
2023/08/29 02:58:42;;;;;;;11.37;10.30;;;14.80;99.90;;;;;;6075515;23;20455;-72
2023/08/29 03:01:11;;;;;;;10.50;9.50;;;14.80;99.90;;;;;;6099236;23;20230;-70
2023/08/29 03:03:37;;;;;;;20.03;14.23;;;14.80;99.90;;;;;;6075689;23;20482;-70
2023/08/29 03:06:03;;;;;;;14.03;12.73;;;14.70;99.90;;;;;;6100669;23;20427;-70
2023/08/29 03:08:28;;;;;;;14.50;13.00;;;14.70;99.90;;;;;;6074923;23;20376;-69
2023/08/29 03:10:55;;;;;;;17.60;15.80;;;14.70;99.90;;;;;;6074868;23;20227;-70
2023/08/29 03:13:21;;;;;;;15.53;13.83;;;14.70;99.90;;;;;;6074802;23;20373;-70
2023/08/29 03:15:48;;;;;;;14.60;12.90;;;14.70;99.90;;;;;;6075074;23;20247;-72
2023/08/29 03:18:14;;;;;;;15.93;11.07;;;14.70;99.90;;;;;;6076057;23;20380;-70
2023/08/29 03:20:43;;;;;;;14.97;12.53;;;14.60;99.90;;;;;;6074322;23;20454;-70
2023/08/29 03:23:10;;;;;;;16.10;13.97;;;14.60;99.90;;;;;;6074911;23;20467;-70
2023/08/29 03:25:36;;;;;;;13.43;11.87;;;14.60;99.90;;;;;;6099853;23;20369;-70
2023/08/29 03:28:03;;;;;;;12.00;10.80;;;14.60;99.90;;;;;;6100323;23;20420;-70
2023/08/29 03:30:30;;;;;;;15.80;13.87;;;14.60;99.90;;;;;;6074022;23;20484;-69
2023/08/29 03:32:56;;;;;;;13.67;12.27;;;14.50;99.90;;;;;;6074714;23;20810;-69
2023/08/29 03:35:22;;;;;;;12.53;11.33;;;14.50;99.90;;;;;;6099743;23;20433;-70
2023/08/29 03:37:48;;;;;;;15.73;11.00;;;14.50;99.90;;;;;;6100713;23;20239;-71
2023/08/29 03:40:14;;;;;;;11.50;10.30;;;14.50;99.90;;;;;;6076004;23;20820;-71
2023/08/29 03:42:40;;;;;;;12.37;11.27;;;14.50;99.90;;;;;;6101386;23;20247;-71
2023/08/29 03:45:08;;;;;;;13.80;12.40;;;14.50;99.90;;;;;;6101502;23;20138;-71
2023/08/29 03:47:34;;;;;;;21.97;14.13;;;14.50;99.90;;;;;;6076474;23;20372;-71
2023/08/29 03:50:00;;;;;;;13.83;12.43;;;14.50;99.90;;;;;;6101344;23;20416;-70
2023/08/29 03:52:26;;;;;;;14.60;13.17;;;14.50;99.90;;;;;;6076205;23;20808;-71
2023/08/29 03:54:53;;;;;;;17.70;13.00;;;14.50;99.90;;;;;;6077141;23;20153;-70
2023/08/29 03:57:20;;;;;;;13.07;11.67;;;14.50;99.90;;;;;;6076030;23;20402;-72
2023/08/29 03:59:46;;;;;;;12.53;11.37;;;14.50;99.90;;;;;;6075545;23;20728;-72
2023/08/29 04:02:12;;;;;;;11.30;9.47;;;14.50;99.90;;;;;;6077286;23;20920;-72
2023/08/29 04:04:38;;;;;;;10.93;9.93;;;14.40;99.90;;;;;;6103073;23;20353;-71
2023/08/29 04:07:04;;;;;;;10.10;9.10;;;14.40;99.90;;;;;;6079341;23;20149;-73
2023/08/29 04:09:31;;;;;;;10.10;9.10;;;14.40;99.90;;;;;;6102762;23;20364;-72
2023/08/29 04:11:57;;;;;;;9.83;8.67;;;14.40;99.90;;;;;;6102416;23;20408;-72
2023/08/29 04:14:22;;;;;;;10.77;9.67;;;14.40;99.90;;;;;;6078556;23;20144;-72
2023/08/29 04:16:49;;;;;;;13.00;11.60;;;14.40;99.90;;;;;;6104137;23;20243;-72
2023/08/29 04:19:15;;;;;;;15.30;13.70;;;14.40;99.90;;;;;;6103109;23;20375;-71
2023/08/29 04:21:40;;;;;;;15.50;13.67;;;14.40;99.90;;;;;;6079815;23;20192;-71
2023/08/29 04:24:07;;;;;;;14.27;11.97;;;14.40;99.90;;;;;;6103824;23;20140;-71
2023/08/29 04:26:32;;;;;;;14.87;13.33;;;14.40;99.90;;;;;;6104624;23;20144;-72
2023/08/29 04:28:58;;;;;;;16.33;13.63;;;14.40;99.90;;;;;;6104907;23;20942;-69
2023/08/29 04:31:24;;;;;;;15.13;13.73;;;14.40;99.90;;;;;;6080104;23;20232;-72
2023/08/29 04:33:50;;;;;;;15.23;13.20;;;14.40;99.90;;;;;;6107171;23;20142;-70
2023/08/29 04:36:16;;;;;;;18.13;16.27;;;14.40;99.90;;;;;;6107207;23;20369;-71
2023/08/29 04:38:44;;;;;;;16.13;14.40;;;14.40;99.90;;;;;;6106965;23;20463;-72
2023/08/29 04:41:11;;;;;;;16.00;14.30;;;14.30;99.90;;;;;;6081304;23;20455;-72
2023/08/29 04:43:36;;;;;;;17.83;16.00;;;14.30;99.90;;;;;;6082012;23;20373;-71
2023/08/29 04:46:02;;;;;;;22.10;18.30;;;14.30;99.90;;;;;;6082070;23;20383;-72
2023/08/29 04:48:28;;;;;;;19.57;16.20;;;14.30;99.90;;;;;;6080850;23;20570;-72
2023/08/29 04:50:53;;;;;;;18.03;14.33;;;14.30;99.90;;;;;;6057547;23;20228;-72
2023/08/29 04:53:21;;;;;;;15.30;13.70;;;14.30;99.90;;;;;;6107365;23;20137;-73
2023/08/29 04:55:46;;;;;;;15.23;13.63;;;14.30;99.90;;;;;;6082104;23;20140;-71
2023/08/29 04:58:12;;;;;;;13.93;12.50;;;14.30;99.90;;;;;;6107298;23;20404;-71
2023/08/29 05:00:38;;;;;;;17.37;14.83;;;14.30;99.90;;;;;;6082053;23;20639;-73
2023/08/29 05:03:04;;;;;;;19.43;16.20;;;14.30;99.90;;;;;;6083299;23;20168;-73
2023/08/29 05:05:30;;;;;;;19.47;17.47;;;14.30;99.90;;;;;;6105313;23;20140;-71
2023/08/29 05:07:57;;;;;;;14.73;13.13;;;14.30;99.90;;;;;;6106654;23;20361;-71
2023/08/29 05:10:26;;;;;;;13.50;12.30;;;14.30;99.90;;;;;;6080224;23;20463;-73
2023/08/29 05:12:52;;;;;;;11.50;9.47;;;14.30;99.90;;;;;;6080746;23;20420;-71
2023/08/29 05:15:17;;;;;;;17.00;15.20;;;14.30;99.90;;;;;;6080260;23;20152;-72
2023/08/29 05:17:46;;;;;;;15.87;14.10;;;14.30;99.90;;;;;;6081050;23;20152;-72
2023/08/29 05:20:11;;;;;;;19.23;15.40;;;14.40;99.90;;;;;;6080638;23;20436;-71
2023/08/29 05:22:38;;;;;;;16.50;13.00;;;14.40;99.90;;;;;;6105325;23;20588;-72
2023/08/29 05:25:04;;;;;;;23.70;14.83;;;14.40;99.90;;;;;;6081822;23;20398;-72
2023/08/29 05:27:29;;;;;;;16.60;14.43;;;14.50;99.90;;;;;;6110431;23;20141;-73
2023/08/29 05:29:55;;;;;;;15.07;13.47;;;14.50;99.90;;;;;;6106907;23;20404;-75
2023/08/29 05:32:20;;;;;;;20.80;17.40;;;14.50;99.90;;;;;;6106129;23;20444;-72
2023/08/29 05:34:46;;;;;;;15.70;14.17;;;14.60;99.90;;;;;;6107886;23;20141;-71
2023/08/29 05:37:12;;;;;;;16.83;14.93;;;14.60;99.90;;;;;;6082839;23;20208;-74
2023/08/29 05:39:38;;;;;;;15.70;14.17;;;14.60;99.90;;;;;;6107901;23;20766;-73
2023/08/29 05:42:04;;;;;;;17.97;15.90;;;14.60;99.90;;;;;;6108237;23;20183;-73
2023/08/29 05:44:30;;;;;;;17.80;15.97;;;14.70;99.90;;;;;;6108276;23;20361;-76
2023/08/29 05:46:55;;;;;;;16.47;13.73;;;14.80;99.90;;;;;;6084204;23;20217;-72
2023/08/29 05:49:21;;;;;;;17.00;15.10;;;14.80;99.90;;;;;;6109808;23;20181;-75
2023/08/29 05:51:47;;;;;;;14.97;13.40;;;14.80;99.90;;;;;;6111019;23;20144;-75
2023/08/29 05:54:12;;;;;;;17.03;15.33;;;14.90;99.90;;;;;;6087106;23;20368;-74
2023/08/29 05:56:38;;;;;;;18.40;16.50;;;15.00;99.90;;;;;;6083499;23;20147;-73
2023/08/29 05:59:04;;;;;;;21.03;18.83;;;15.00;99.90;;;;;;6106000;23;20176;-72
2023/08/29 06:01:30;;;;;;;16.57;14.87;;;15.00;99.90;;;;;;6106785;23;20191;-72
2023/08/29 06:03:55;;;;;;;16.97;15.33;;;15.10;99.90;;;;;;6082577;23;20407;-73
2023/08/29 06:06:21;;;;;;;20.03;18.00;;;15.10;99.90;;;;;;6081758;23;20214;-74
2023/08/29 06:08:48;;;;;;;21.20;18.97;;;15.20;99.90;;;;;;6107243;23;20487;-74
2023/08/29 06:11:13;;;;;;;17.23;15.53;;;15.30;99.90;;;;;;6109712;23;20164;-74
2023/08/29 06:13:39;;;;;;;19.10;16.87;;;15.30;99.90;;;;;;6109143;23;20788;-74
2023/08/29 06:16:05;;;;;;;16.97;15.27;;;15.40;99.90;;;;;;6108622;23;20456;-72
2023/08/29 06:18:32;;;;;;;15.83;14.23;;;15.30;99.90;;;;;;6107942;23;20177;-72
2023/08/29 06:20:58;;;;;;;22.93;17.73;;;15.40;99.90;;;;;;6082630;23;20224;-74
2023/08/29 06:23:24;;;;;;;17.67;15.07;;;15.50;99.90;;;;;;6108791;23;20369;-73
2023/08/29 06:25:50;;;;;;;21.87;19.50;;;15.60;99.90;;;;;;6106470;23;20597;-74
2023/08/29 06:28:15;;;;;;;17.10;15.40;;;15.70;99.90;;;;;;6105510;23;20247;-73
2023/08/29 06:30:41;;;;;;;20.60;16.83;;;15.70;99.90;;;;;;6106679;23;20439;-76
2023/08/29 06:33:06;;;;;;;20.30;18.20;;;15.80;99.90;;;;;;6108126;23;20141;-74
2023/08/29 06:35:38;;;;;;;17.53;15.77;;;15.80;99.90;;;;;;6087150;23;20165;-75
2023/08/29 06:38:04;;;;;;;22.30;19.97;;;15.90;99.90;;;;;;6107850;23;20168;-71
2023/08/29 06:40:29;;;;;;;19.50;17.40;;;16.00;99.90;;;;;;6079641;23;20412;-74
2023/08/29 06:42:55;;;;;;;21.67;16.70;;;16.10;99.90;;;;;;6083229;23;20480;-74
2023/08/29 06:45:20;;;;;;;20.10;17.87;;;16.20;99.90;;;;;;6083488;23;20234;-74
2023/08/29 06:47:46;;;;;;;19.93;17.90;;;16.20;99.90;;;;;;6108090;23;20188;-73
2023/08/29 06:50:12;;;;;;;18.20;16.40;;;16.20;99.90;;;;;;6081614;23;20177;-73
2023/08/29 06:52:37;;;;;;;22.40;18.93;;;16.30;99.90;;;;;;6081385;23;20153;-75
2023/08/29 06:55:03;;;;;;;26.20;18.87;;;16.30;99.90;;;;;;6082032;23;20418;-75
2023/08/29 06:57:29;;;;;;;23.93;21.10;;;16.30;99.90;;;;;;6107401;23;20163;-73
2023/08/29 06:59:54;;;;;;;25.13;21.73;;;16.40;99.90;;;;;;6082965;23;20172;-74
2023/08/29 07:02:20;;;;;;;29.67;25.60;;;16.50;99.90;;;;;;6083396;23;20186;-74
2023/08/29 07:04:46;;;;;;;26.27;21.90;;;16.50;99.90;;;;;;6089744;23;20137;-75
2023/08/29 07:07:12;;;;;;;26.73;23.93;;;16.60;99.90;;;;;;6060808;23;20163;-73
2023/08/29 07:09:37;;;;;;;31.50;24.73;;;16.60;99.90;;;;;;6085059;23;20369;-74
2023/08/29 07:12:03;;;;;;;25.17;22.50;;;16.60;99.90;;;;;;6111687;23;20146;-75
2023/08/29 07:14:30;;;;;;;27.63;22.60;;;16.70;99.90;;;;;;6108396;23;20146;-75
2023/08/29 07:16:55;;;;;;;24.53;21.83;;;16.80;99.90;;;;;;6061650;23;20461;-73
2023/08/29 07:19:21;;;;;;;25.60;22.30;;;16.80;99.90;;;;;;6108662;23;20392;-74
2023/08/29 07:21:47;;;;;;;27.63;24.60;;;16.90;99.90;;;;;;6107486;23;20175;-74
2023/08/29 07:24:13;;;;;;;27.03;24.20;;;16.90;99.90;;;;;;6106812;23;20502;-74
2023/08/29 07:26:38;;;;;;;35.80;31.40;;;17.00;99.90;;;;;;6110775;23;20146;-76
2023/08/29 07:29:04;;;;;;;29.80;26.50;;;16.90;99.90;;;;;;6084687;23;20190;-74
2023/08/29 07:31:30;;;;;;;29.93;26.83;;;16.90;99.90;;;;;;6111382;23;20185;-76
2023/08/29 07:33:56;;;;;;;33.07;28.57;;;16.90;99.90;;;;;;6087135;23;20148;-77
2023/08/29 07:36:21;;;;;;;31.73;27.37;;;17.00;99.90;;;;;;6083321;23;20382;-75
2023/08/29 07:38:48;;;;;;;28.10;25.27;;;17.00;99.90;;;;;;6083619;23;20185;-75
2023/08/29 07:41:14;;;;;;;30.33;27.10;;;17.10;99.90;;;;;;6117484;23;20170;-77
2023/08/29 07:43:40;;;;;;;31.00;27.30;;;17.20;99.90;;;;;;6114594;23;20368;-74
2023/08/29 07:46:05;;;;;;;29.93;27.07;;;17.20;99.90;;;;;;6115167;23;20369;-74
2023/08/29 07:48:32;;;;;;;33.63;30.23;;;17.20;99.90;;;;;;6114282;23;20140;-75
2023/08/29 07:50:57;;;;;;;39.30;33.43;;;17.10;99.90;;;;;;6112226;23;20191;-72
2023/08/29 07:53:23;;;;;;;36.87;33.03;;;17.10;99.90;;;;;;6108650;23;20366;-75
2023/08/29 07:55:48;;;;;;;36.30;31.77;;;17.10;99.90;;;;;;6087277;23;20223;-75
2023/08/29 07:58:14;;;;;;;37.47;32.23;;;17.10;99.90;;;;;;6086499;23;20160;-74
2023/08/29 08:00:40;;;;;;;33.47;30.03;;;17.20;99.90;;;;;;6081538;23;20182;-74
2023/08/29 08:03:07;;;;;;;39.47;34.90;;;17.30;99.90;;;;;;6108437;23;20422;-74
2023/08/29 08:05:32;;;;;;;40.10;35.90;;;17.30;99.90;;;;;;6113185;23;20379;-74
2023/08/29 08:08:00;;;;;;;38.80;34.20;;;17.30;99.90;;;;;;6086173;23;20430;-75
2023/08/29 08:10:25;;;;;;;41.10;36.77;;;17.40;99.90;;;;;;6109517;23;20212;-75
2023/08/29 08:12:51;;;;;;;41.93;37.50;;;17.50;99.90;;;;;;6088254;23;20451;-74
2023/08/29 08:15:17;;;;;;;44.87;36.97;;;17.50;99.90;;;;;;6119197;23;20137;-77
2023/08/29 08:17:43;;;;;;;43.93;38.67;;;17.50;99.90;;;;;;6086921;23;20163;-74
2023/08/29 08:20:09;;;;;;;37.70;33.83;;;17.40;99.90;;;;;;6111592;23;20164;-72
2023/08/29 08:22:36;;;;;;;37.50;33.50;;;17.40;99.90;;;;;;6085988;23;20445;-75
2023/08/29 08:25:02;;;;;;;35.87;30.47;;;17.50;99.90;;;;;;6109002;23;20361;-73
2023/08/29 08:27:29;;;;;;;42.77;36.90;;;17.60;99.90;;;;;;6109476;23;20878;-73
2023/08/29 08:29:56;;;;;;;39.50;34.97;;;17.70;99.90;;;;;;6081550;23;20228;-73
2023/08/29 08:32:21;;;;;;;37.80;33.77;;;17.80;99.90;;;;;;6083774;23;20369;-74
2023/08/29 08:34:47;;;;;;;54.43;41.67;;;17.90;99.90;;;;;;6058499;23;20409;-76
2023/08/29 08:37:12;;;;;;;55.67;42.30;;;17.80;99.90;;;;;;6083801;23;20215;-74
2023/08/29 08:39:38;;;;;;;51.87;41.90;;;17.80;99.90;;;;;;6084145;23;20161;-74
2023/08/29 08:42:04;;;;;;;45.77;39.53;;;17.80;99.90;;;;;;6083258;23;20165;-73
2023/08/29 08:44:31;;;;;;;44.70;37.47;;;17.80;99.90;;;;;;6082516;23;20153;-74
2023/08/29 08:46:57;;;;;;;44.97;38.50;;;17.80;99.90;;;;;;6061030;23;20207;-75
2023/08/29 08:49:25;;;;;;;48.23;35.87;;;17.90;99.90;;;;;;6086522;23;20369;-75
2023/08/29 08:51:52;;;;;;;45.47;37.47;;;18.00;99.90;;;;;;6082203;23;20639;-75
2023/08/29 08:54:18;;;;;;;46.30;40.13;;;18.00;99.90;;;;;;6058132;23;20393;-74
2023/08/29 08:56:44;;;;;;;43.63;34.83;;;18.00;99.90;;;;;;6081131;23;20397;-76
2023/08/29 08:59:10;;;;;;;39.90;34.47;;;18.00;99.90;;;;;;6081310;23;20153;-74
2023/08/29 09:01:37;;;;;;;39.30;31.23;;;18.10;99.90;;;;;;6056878;23;20795;-77
2023/08/29 09:04:03;;;;;;;38.50;32.30;;;18.20;99.90;;;;;;6056881;23;20172;-76
2023/08/29 09:06:29;;;;;;;36.13;31.03;;;18.30;99.90;;;;;;6083728;23;20361;-75
2023/08/29 09:09:18;;;;;;;32.70;28.87;;;18.40;99.90;;;;;;6083358;23;20141;-76
2023/08/29 09:11:54;;;;;;;35.57;28.10;;;18.50;99.90;;;;;;6081490;23;20400;-73
2023/08/29 09:14:22;;;;;;;35.20;30.47;;;18.40;99.90;;;;;;6081631;23;20373;-77
2023/08/29 09:17:00;;;;;;;32.17;28.40;;;18.40;99.90;;;;;;6080177;23;20824;-75
2023/08/29 09:19:29;;;;;;;29.77;26.53;;;18.50;99.90;;;;;;6082475;23;20639;-77
2023/08/29 09:21:55;;;;;;;34.30;30.60;;;18.60;99.90;;;;;;6061577;23;20409;-77
2023/08/29 09:24:35;;;;;;;36.57;31.70;;;18.70;99.90;;;;;;6085056;23;20373;-78
2023/08/29 09:27:11;;;;;;;34.70;31.00;;;18.70;99.90;;;;;;6082551;23;20393;-77
2023/08/29 09:29:37;;;;;;;28.90;25.20;;;18.80;99.90;;;;;;6110570;23;20419;-78
2023/08/29 09:32:13;;;;;;;26.63;23.93;;;18.80;99.90;;;;;;6091798;23;20365;-76
2023/08/29 09:34:40;;;;;;;21.73;19.50;;;19.00;99.90;;;;;;6112727;23;20375;-77
2023/08/29 09:37:06;;;;;;;27.23;23.93;;;19.10;99.90;;;;;;6111498;23;20367;-76
2023/08/29 09:39:31;;;;;;;25.93;23.13;;;19.30;99.90;;;;;;6088342;23;20372;-75
2023/08/29 09:42:05;;;;;;;27.03;23.27;;;19.50;99.90;;;;;;6086749;23;20415;-74
2023/08/29 09:44:52;;;;;;;22.67;20.57;;;19.60;99.90;;;;;;6111253;23;20540;-75
2023/08/29 09:47:25;;;;;;;29.53;26.47;;;19.60;99.90;;;;;;6113574;23;20371;-77
2023/08/29 09:49:51;;;;;;;29.17;26.10;;;19.70;99.90;;;;;;6085773;23;20851;-75
2023/08/29 09:52:18;;;;;;;26.90;24.17;;;19.80;99.90;;;;;;6111065;23;20642;-74
2023/08/29 09:54:48;;;;;;;26.53;23.97;;;19.90;99.50;;;;;;6112565;23;20371;-74
2023/08/29 09:57:16;;;;;;;28.83;26.00;;;20.00;98.40;;;;;;6086496;23;20392;-74
2023/08/29 09:59:43;;;;;;;28.23;25.53;;;20.00;97.80;;;;;;6109941;23;20494;-75
2023/08/29 10:02:13;;;;;;;24.87;22.37;;;20.10;96.40;;;;;;6111250;23;20919;-73
2023/08/29 10:04:44;;;;;;;25.80;23.23;;;20.10;96.70;;;;;;6084455;23;20408;-74
2023/08/29 10:07:14;;;;;;;27.50;24.80;;;20.10;96.60;;;;;;6088917;23;20365;-75
2023/08/29 10:09:42;;;;;;;29.13;25.97;;;20.30;96.20;;;;;;6114334;23;20416;-76
2023/08/29 10:12:09;;;;;;;24.80;22.20;;;20.40;95.40;;;;;;6087189;23;20408;-76
2023/08/29 10:14:35;;;;;;;26.97;24.23;;;20.50;94.90;;;;;;6113107;23;20442;-77
2023/08/29 10:17:02;;;;;;;28.60;25.10;;;20.70;93.40;;;;;;6110497;23;20372;-73
2023/08/29 10:19:29;;;;;;;26.63;23.93;;;20.90;92.20;;;;;;6086860;23;20376;-75
2023/08/29 10:21:55;;;;;;;23.87;21.47;;;21.00;91.40;;;;;;6111800;23;20408;-77
2023/08/29 10:24:22;;;;;;;28.13;25.47;;;21.10;91.00;;;;;;6113974;23;20365;-76
2023/08/29 10:26:49;;;;;;;21.00;19.00;;;21.10;88.10;;;;;;6064169;23;20372;-76
2023/08/29 10:29:17;;;;;;;33.23;29.73;;;21.30;88.60;;;;;;6090937;23;20515;-75
2023/08/29 10:31:45;;;;;;;28.73;25.73;;;21.30;84.10;;;;;;6117917;23;20368;-78
2023/08/29 10:34:13;;;;;;;25.93;23.40;;;21.40;84.10;;;;;;6115766;23;20432;-76
2023/08/29 10:36:39;;;;;;;24.60;22.30;;;21.60;83.20;;;;;;6088235;23;20381;-77
2023/08/29 10:39:09;;;;;;;22.60;20.60;;;21.70;82.20;;;;;;6088353;23;20377;-75
2023/08/29 10:41:48;;;;;;;26.30;23.63;;;21.90;80.60;;;;;;6114229;23;20412;-76
2023/08/29 10:44:23;;;;;;;26.30;23.60;;;22.00;77.30;;;;;;6086694;23;20355;-74
2023/08/29 10:46:52;;;;;;;26.67;24.23;;;22.00;75.00;;;;;;6087209;23;20379;-76
2023/08/29 10:49:21;;;;;;;26.17;23.67;;;22.00;75.70;;;;;;6090464;23;20396;-73
2023/08/29 10:52:08;;;;;;;30.83;27.60;;;22.00;75.40;;;;;;6113308;23;20399;-75
2023/08/29 10:54:33;;;;;;;30.47;27.77;;;21.90;75.30;;;;;;6113345;23;20643;-75
2023/08/29 10:57:00;;;;;;;30.50;27.53;;;21.80;73.80;;;;;;6114045;23;20373;-76
2023/08/29 10:59:31;;;;;;;30.43;27.10;;;21.60;74.90;;;;;;6064681;23;20180;-75
2023/08/29 11:02:31;;;;;;;23.67;21.37;;;21.50;75.50;;;;;;6111874;23;20415;-77
2023/08/29 11:05:03;;;;;;;20.43;18.40;;;21.50;75.20;;;;;;6090951;23;20364;-75
2023/08/29 11:07:30;;;;;;;20.60;18.63;;;21.60;75.40;;;;;;6065676;23;20381;-76
2023/08/29 11:10:18;;;;;;;21.13;19.03;;;21.80;74.30;;;;;;6089267;23;20432;-77
2023/08/29 11:13:06;;;;;;;20.03;18.03;;;21.60;71.80;;;;;;6090791;23;20365;-74
2023/08/29 11:15:47;;;;;;;17.00;15.40;;;21.50;71.10;;;;;;6091548;23;20368;-79
2023/08/29 11:18:35;;;;;;;17.50;15.73;;;21.30;71.70;;;;;;6092547;23;20369;-77
2023/08/29 11:21:08;;;;;;;16.43;14.77;;;21.10;72.60;;;;;;6115312;23;20402;-75
2023/08/29 11:23:38;;;;;;;17.20;15.60;;;21.00;73.70;;;;;;6116166;23;20365;-76
2023/08/29 11:26:04;;;;;;;19.17;17.37;;;20.90;74.20;;;;;;6113637;23;20405;-76
2023/08/29 11:28:33;;;;;;;17.07;15.37;;;20.70;75.00;;;;;;6088757;23;20431;-77
2023/08/29 11:30:59;;;;;;;19.50;17.57;;;20.60;76.60;;;;;;6116567;23;20164;-77
2023/08/29 11:33:36;;;;;;;20.97;18.97;;;20.40;78.00;;;;;;6115096;23;20361;-77
2023/08/29 11:36:04;;;;;;;17.40;15.67;;;20.30;80.60;;;;;;6092485;23;20376;-75
2023/08/29 11:38:30;;;;;;;30.00;17.57;;;20.20;80.80;;;;;;6116318;23;20448;-77
2023/08/29 11:41:01;;;;;;;14.50;13.10;;;20.30;81.40;;;;;;6115334;23;20392;-76
2023/08/29 11:43:29;;;;;;;13.50;12.23;;;20.40;80.30;;;;;;6116957;23;20373;-79
2023/08/29 11:45:59;;;;;;;13.13;11.27;;;20.50;80.00;;;;;;6092572;23;20360;-75
2023/08/29 11:48:31;;;;;;;16.73;14.20;;;20.60;79.80;;;;;;6092457;23;20436;-78
2023/08/29 11:51:01;;;;;;;14.73;12.90;;;20.80;77.70;;;;;;6119079;23;20396;-77
2023/08/29 11:53:30;;;;;;;11.03;9.93;;;20.80;78.00;;;;;;6093972;23;20420;-78
2023/08/29 11:55:57;;;;;;;14.97;13.50;;;20.90;77.40;;;;;;6094490;23;20372;-77
2023/08/29 11:58:36;;;;;;;13.10;11.90;;;20.90;76.90;;;;;;6116208;23;20384;-78
2023/08/29 12:01:07;;;;;;;16.83;13.67;;;20.90;77.00;;;;;;6116768;23;20404;-77
2023/08/29 12:03:37;;;;;;;16.93;15.20;;;21.00;76.40;;;;;;6092949;23;20419;-77
2023/08/29 12:06:04;;;;;;;13.33;12.17;;;21.00;75.90;;;;;;6090762;23;20424;-77
2023/08/29 12:08:39;;;;;;;16.33;14.83;;;21.10;76.20;;;;;;6087832;23;20432;-74
2023/08/29 12:11:06;;;;;;;12.70;11.60;;;21.20;75.40;;;;;;6115844;23;20721;-78
2023/08/29 12:13:36;;;;;;;11.13;10.13;;;21.40;75.60;;;;;;6115523;23;20365;-78
2023/08/29 12:16:03;;;;;;;12.67;11.40;;;21.60;74.60;;;;;;6088457;23;20411;-75
2023/08/29 12:18:29;;;;;;;12.30;11.20;;;21.80;73.60;;;;;;6114936;23;20372;-76
2023/08/29 12:21:15;;;;;;;15.17;13.33;;;21.90;73.20;;;;;;6089936;23;20479;-76
2023/08/29 12:23:44;;;;;;;14.77;13.27;;;22.00;71.80;;;;;;6113184;23;20356;-77
2023/08/29 12:26:11;;;;;;;17.83;16.03;;;22.00;71.30;;;;;;6115175;23;20365;-77
2023/08/29 12:28:37;;;;;;;17.37;15.57;;;21.90;69.70;;;;;;6115380;23;20423;-75
2023/08/29 12:31:03;;;;;;;15.50;13.90;;;21.60;70.90;;;;;;6091601;23;20475;-78
2023/08/29 12:33:29;;;;;;;14.47;13.07;;;21.40;72.00;;;;;;6112967;23;20361;-75